createdAt,value
2018-09-26T00:01:40.900Z,50.30
2018-09-26T00:04:20.930Z,50.66
2018-09-26T00:06:50.542Z,51.15
2018-09-26T00:09:19.999Z,51.04
2018-09-26T00:11:49.656Z,50.88
2018-09-26T00:14:19.258Z,51.41
2018-09-26T00:16:48.829Z,51.43
2018-09-26T00:19:18.399Z,51.51
2018-09-26T00:21:48.090Z,51.77
2018-09-26T00:24:17.677Z,51.63
2018-09-26T00:26:47.294Z,51.48
2018-09-26T00:29:16.672Z,51.54
2018-09-26T00:31:46.279Z,51.48
2018-09-26T00:34:15.975Z,51.57
2018-09-26T00:36:45.503Z,51.69
2018-09-26T00:39:14.895Z,51.95
2018-09-26T00:41:44.518Z,51.78
2018-09-26T00:44:14.099Z,51.72
2018-09-26T00:46:43.839Z,51.56
2018-09-26T00:49:13.308Z,51.79
2018-09-26T00:51:42.848Z,51.93
2018-09-26T00:54:12.541Z,51.72
2018-09-26T00:56:42.122Z,51.73
2018-09-26T00:59:11.732Z,51.77
2018-09-26T01:01:42.017Z,51.47
2018-09-26T01:04:11.628Z,51.79
2018-09-26T01:06:41.230Z,51.78
2018-09-26T01:09:11.415Z,51.61
2018-09-26T01:11:41.093Z,52.16
2018-09-26T01:14:10.571Z,52.00
2018-09-26T01:16:40.135Z,51.68
2018-09-26T01:19:09.715Z,52.03
2018-09-26T01:21:39.391Z,51.86
2018-09-26T01:24:09.242Z,52.28
2018-09-26T01:26:38.878Z,51.96
2018-09-26T01:29:08.819Z,51.76
2018-09-26T01:31:38.357Z,51.86
2018-09-26T01:34:07.822Z,51.87
2018-09-26T01:36:37.378Z,51.89
2018-09-26T01:39:08.440Z,51.84
2018-09-26T01:41:38.238Z,52.06
2018-09-26T01:44:07.899Z,52.22
2018-09-26T01:46:37.421Z,52.28
2018-09-26T01:49:06.845Z,52.18
2018-09-26T01:51:36.353Z,51.85
2018-09-26T01:54:06.782Z,51.68
2018-09-26T01:56:36.698Z,52.10
2018-09-26T01:59:06.232Z,52.08
2018-09-26T02:01:35.574Z,52.37
2018-09-26T02:04:05.271Z,51.82
2018-09-26T02:06:34.897Z,52.54
2018-09-26T02:09:05.080Z,52.92
2018-09-26T02:11:34.488Z,52.88
2018-09-26T02:14:06.261Z,52.85
2018-09-26T02:16:35.894Z,53.04
2018-09-26T02:19:05.577Z,51.91
2018-09-26T02:21:35.331Z,52.90
2018-09-26T02:24:04.768Z,52.28
2018-09-26T02:26:35.148Z,53.11
2018-09-26T02:29:04.693Z,53.23
2018-09-26T02:31:34.036Z,52.33
2018-09-26T02:34:03.702Z,52.63
2018-09-26T02:36:33.109Z,51.69
2018-09-26T02:39:02.869Z,51.69
2018-09-26T02:41:32.371Z,51.59
2018-09-26T02:44:01.984Z,52.08
2018-09-26T02:46:31.537Z,52.44
2018-09-26T02:49:05.033Z,52.32
2018-09-26T02:51:36.162Z,52.81
2018-09-26T02:54:06.166Z,52.71
2018-09-26T02:56:35.746Z,52.16
2018-09-26T02:59:05.304Z,52.96
2018-09-26T03:01:34.848Z,52.41
2018-09-26T03:04:04.349Z,52.69
2018-09-26T03:06:33.932Z,52.80
2018-09-26T03:09:03.426Z,52.64
2018-09-26T03:11:33.558Z,52.63
2018-09-26T03:14:03.030Z,52.66
2018-09-26T03:16:32.515Z,53.42
2018-09-26T03:19:02.101Z,53.67
2018-09-26T03:21:31.799Z,53.90
2018-09-26T03:24:01.271Z,52.93
2018-09-26T03:26:30.938Z,52.99
2018-09-26T03:29:00.513Z,54.07
2018-09-26T03:31:30.068Z,53.84
2018-09-26T03:33:59.795Z,54.04
2018-09-26T03:36:29.256Z,54.14
2018-09-26T03:38:58.660Z,53.83
2018-09-26T03:41:28.204Z,54.64
2018-09-26T03:43:57.913Z,53.94
2018-09-26T03:46:27.462Z,54.07
2018-09-26T03:48:57.015Z,53.69
2018-09-26T03:51:26.630Z,54.56
2018-09-26T03:53:56.186Z,54.24
2018-09-26T03:56:25.726Z,53.97
2018-09-26T03:58:55.795Z,54.29
2018-09-26T04:01:25.311Z,54.65
2018-09-26T04:03:55.563Z,54.55
2018-09-26T04:06:25.061Z,54.09
2018-09-26T04:08:54.700Z,53.98
2018-09-26T04:11:24.252Z,54.01
2018-09-26T04:13:53.820Z,54.29
2018-09-26T04:16:23.360Z,54.78
2018-09-26T04:18:53.172Z,54.85
2018-09-26T04:21:22.622Z,53.93
2018-09-26T04:23:52.180Z,54.38
2018-09-26T04:26:21.794Z,54.18
2018-09-26T04:28:51.478Z,54.23
2018-09-26T04:31:21.026Z,54.59
2018-09-26T04:33:50.579Z,54.13
2018-09-26T04:36:20.164Z,54.35
2018-09-26T04:38:49.721Z,53.84
2018-09-26T04:41:19.316Z,53.18
2018-09-26T04:43:49.284Z,52.39
2018-09-26T04:46:18.916Z,51.27
2018-09-26T04:48:48.380Z,48.79
2018-09-26T04:51:17.916Z,47.14
2018-09-26T04:53:47.577Z,45.95
2018-09-26T04:56:17.106Z,43.92
2018-09-26T04:58:46.783Z,41.83
2018-09-26T05:01:16.449Z,40.17
2018-09-26T05:03:46.219Z,39.72
2018-09-26T05:06:15.634Z,37.71
2018-09-26T05:08:45.310Z,38.48
2018-09-26T05:11:14.816Z,37.78
2018-09-26T05:13:44.421Z,37.58
2018-09-26T05:16:13.985Z,37.99
2018-09-26T05:18:43.599Z,36.44
2018-09-26T05:21:13.078Z,34.46
2018-09-26T05:23:42.697Z,34.44
2018-09-26T05:26:12.316Z,33.98
2018-09-26T05:28:45.715Z,32.98
2018-09-26T05:31:15.153Z,31.45
2018-09-26T05:33:44.722Z,31.31
2018-09-26T05:36:14.392Z,30.73
2018-09-26T05:38:43.799Z,29.74
2018-09-26T05:41:13.324Z,30.46
2018-09-26T05:43:42.994Z,29.71
2018-09-26T05:46:12.516Z,28.59
2018-09-26T05:48:42.102Z,28.38
2018-09-26T05:51:11.659Z,28.19
2018-09-26T05:53:41.294Z,28.30
2018-09-26T05:56:14.368Z,28.25
2018-09-26T05:58:43.941Z,27.30
2018-09-26T06:01:13.371Z,27.47
2018-09-26T06:03:43.106Z,27.19
2018-09-26T06:06:12.577Z,26.56
2018-09-26T06:08:41.982Z,27.10
2018-09-26T06:11:11.548Z,27.47
2018-09-26T06:13:42.012Z,27.30
2018-09-26T06:16:11.517Z,28.41
2018-09-26T06:18:41.418Z,26.63
2018-09-26T06:21:11.181Z,26.67
2018-09-26T06:23:41.196Z,26.33
2018-09-26T06:26:10.820Z,26.10
2018-09-26T06:28:40.494Z,25.06
2018-09-26T06:31:10.072Z,24.18
2018-09-26T06:33:39.598Z,23.17
2018-09-26T06:36:09.071Z,22.79
2018-09-26T06:38:38.637Z,24.49
2018-09-26T06:41:08.321Z,23.62
2018-09-26T06:43:37.933Z,24.21
2018-09-26T06:46:07.509Z,23.43
2018-09-26T06:48:36.848Z,23.27
2018-09-26T06:51:06.810Z,23.80
2018-09-26T06:53:36.313Z,23.31
2018-09-26T06:56:05.815Z,23.30
2018-09-26T06:58:35.565Z,24.11
2018-09-26T07:01:05.143Z,23.75
2018-09-26T07:03:34.776Z,23.12
2018-09-26T07:06:04.178Z,23.71
2018-09-26T07:08:33.798Z,22.67
2018-09-26T07:11:03.361Z,22.30
2018-09-26T07:13:32.972Z,23.00
2018-09-26T07:16:02.392Z,22.62
2018-09-26T07:18:31.863Z,22.11
2018-09-26T07:21:01.329Z,21.40
2018-09-26T07:23:30.910Z,21.44
2018-09-26T07:26:00.409Z,22.82
2018-09-26T07:28:30.070Z,22.28
2018-09-26T07:30:59.632Z,21.73
2018-09-26T07:33:29.297Z,21.87
2018-09-26T07:35:58.894Z,21.65
2018-09-26T07:38:28.390Z,21.03
2018-09-26T07:40:57.920Z,21.46
2018-09-26T07:45:47.319Z,18.28
2018-09-26T07:48:16.704Z,19.85
2018-09-26T07:50:46.932Z,19.65
2018-09-26T07:53:16.490Z,19.46
2018-09-26T07:55:46.252Z,19.17
2018-09-26T07:58:15.765Z,19.34
2018-09-26T08:00:45.264Z,20.17
2018-09-26T08:03:14.697Z,19.69
2018-09-26T08:05:44.190Z,19.28
2018-09-26T08:08:13.703Z,18.85
2018-09-26T08:10:43.368Z,18.77
2018-09-26T08:13:12.955Z,18.31
2018-09-26T08:15:42.377Z,18.55
2018-09-26T08:18:12.045Z,18.72
2018-09-26T08:20:41.613Z,19.40
2018-09-26T08:23:11.127Z,18.43
2018-09-26T08:25:40.656Z,18.39
2018-09-26T08:28:10.287Z,18.13
2018-09-26T08:30:39.878Z,17.11
2018-09-26T08:33:09.444Z,17.50
2018-09-26T08:35:38.939Z,18.32
2018-09-26T08:38:08.584Z,18.82
2018-09-26T08:40:38.151Z,18.33
2018-09-26T08:43:07.606Z,18.73
2018-09-26T08:45:37.109Z,18.32
2018-09-26T08:48:06.835Z,17.62
2018-09-26T08:50:36.281Z,18.86
2018-09-26T08:53:05.832Z,17.11
2018-09-26T08:55:35.362Z,17.36
2018-09-26T08:58:04.997Z,17.40
2018-09-26T09:00:36.046Z,18.00
2018-09-26T09:03:06.829Z,18.28
2018-09-26T09:05:36.644Z,18.44
2018-09-26T09:08:06.138Z,17.75
2018-09-26T09:10:35.818Z,17.30
2018-09-26T09:13:05.400Z,18.35
2018-09-26T09:15:35.034Z,18.88
2018-09-26T09:18:04.598Z,18.13
2018-09-26T09:20:34.244Z,17.98
2018-09-26T09:23:03.627Z,17.06
2018-09-26T09:25:33.178Z,18.12
2018-09-26T09:28:02.628Z,17.82
2018-09-26T09:30:31.975Z,19.07
2018-09-26T09:33:01.545Z,18.66
2018-09-26T09:35:31.045Z,17.66
2018-09-26T09:38:00.686Z,18.02
2018-09-26T09:40:30.136Z,17.73
2018-09-26T09:42:59.677Z,17.47
2018-09-26T09:45:29.028Z,16.87
2018-09-26T09:47:58.553Z,17.41
2018-09-26T09:50:28.287Z,16.92
2018-09-26T09:52:57.859Z,17.07
2018-09-26T09:55:27.474Z,17.10
2018-09-26T09:57:57.174Z,18.53
2018-09-26T10:00:30.616Z,18.55
2018-09-26T10:03:00.438Z,18.14
2018-09-26T10:05:30.025Z,18.33
2018-09-26T10:07:59.416Z,18.78
2018-09-26T10:10:29.035Z,17.09
2018-09-26T10:12:58.703Z,16.42
2018-09-26T10:15:28.345Z,17.92
2018-09-26T10:17:57.949Z,17.32
2018-09-26T10:20:27.617Z,15.77
2018-09-26T10:22:57.104Z,16.47
2018-09-26T10:25:27.106Z,15.52
2018-09-26T10:27:56.851Z,15.45
2018-09-26T10:30:26.378Z,17.50
2018-09-26T10:32:55.921Z,20.21
2018-09-26T10:35:25.316Z,20.90
2018-09-26T10:37:54.793Z,20.17
2018-09-26T10:40:24.209Z,20.29
2018-09-26T10:42:53.796Z,20.09
2018-09-26T10:45:23.209Z,19.06
2018-09-26T10:47:52.653Z,17.58
2018-09-26T10:50:22.204Z,16.43
2018-09-26T10:52:51.850Z,15.92
2018-09-26T10:55:21.427Z,15.96
2018-09-26T10:57:50.903Z,17.32
2018-09-26T11:00:20.354Z,17.66
2018-09-26T11:02:49.850Z,19.00
2018-09-26T11:05:19.357Z,17.98
2018-09-26T11:07:49.010Z,16.79
2018-09-26T11:10:18.705Z,16.43
2018-09-26T11:12:48.290Z,16.28
2018-09-26T11:15:17.837Z,18.37
2018-09-26T11:17:47.428Z,17.68
2018-09-26T11:20:17.006Z,18.21
2018-09-26T11:22:46.470Z,18.77
2018-09-26T11:25:15.901Z,18.43
2018-09-26T11:27:45.416Z,17.81
2018-09-26T11:30:15.078Z,17.41
2018-09-26T11:32:44.626Z,19.82
2018-09-26T11:35:14.198Z,19.54
2018-09-26T11:37:44.379Z,18.34
2018-09-26T11:40:14.319Z,18.98
2018-09-26T11:42:44.072Z,18.49
2018-09-26T11:45:13.655Z,17.80
2018-09-26T11:47:43.209Z,17.98
2018-09-26T11:50:12.816Z,19.11
2018-09-26T11:52:42.464Z,20.01
2018-09-26T11:55:12.445Z,20.14
2018-09-26T11:57:41.970Z,20.36
2018-09-26T12:00:11.643Z,20.94
2018-09-26T12:02:42.002Z,21.17
2018-09-26T12:05:11.584Z,21.06
2018-09-26T12:07:41.234Z,21.76
2018-09-26T12:10:10.712Z,21.98
2018-09-26T12:12:40.343Z,22.33
2018-09-26T12:15:09.869Z,22.53
2018-09-26T12:17:39.484Z,22.72
2018-09-26T12:20:09.208Z,22.19
2018-09-26T12:22:38.902Z,22.15
2018-09-26T12:25:08.548Z,22.55
2018-09-26T12:27:38.269Z,22.16
2018-09-26T12:30:08.865Z,22.12
2018-09-26T12:32:38.830Z,22.41
2018-09-26T12:35:08.295Z,22.37
2018-09-26T12:37:37.917Z,22.42
2018-09-26T12:40:08.237Z,22.80
2018-09-26T12:42:37.853Z,22.55
2018-09-26T12:45:07.484Z,22.37
2018-09-26T12:50:11.423Z,21.52
2018-09-26T12:52:41.147Z,21.57
2018-09-26T12:55:10.634Z,21.33
2018-09-26T12:57:40.270Z,22.41
2018-09-26T13:00:09.986Z,22.61
2018-09-26T13:02:39.742Z,22.85
2018-09-26T13:05:09.163Z,22.35
2018-09-26T13:07:38.937Z,22.18
2018-09-26T13:10:08.462Z,21.28
2018-09-26T13:12:37.993Z,21.05
2018-09-26T13:15:07.981Z,22.12
2018-09-26T13:17:37.745Z,22.68
2018-09-26T13:20:07.847Z,22.47
2018-09-26T13:22:37.458Z,23.02
2018-09-26T13:25:07.156Z,22.31
2018-09-26T13:27:36.614Z,23.04
2018-09-26T13:30:06.199Z,23.46
2018-09-26T13:32:35.747Z,23.87
2018-09-26T13:35:05.509Z,23.72
2018-09-26T13:37:35.217Z,24.06
2018-09-26T13:40:05.125Z,24.53
2018-09-26T13:42:34.708Z,24.18
2018-09-26T13:45:04.364Z,23.36
2018-09-26T13:47:33.989Z,23.25
2018-09-26T13:50:03.401Z,23.21
2018-09-26T13:52:33.097Z,22.54
2018-09-26T13:55:02.712Z,23.09
2018-09-26T13:57:32.774Z,23.80
2018-09-26T14:00:02.404Z,23.47
2018-09-26T14:02:32.065Z,22.43
2018-09-26T14:05:01.852Z,23.84
2018-09-26T14:07:31.504Z,23.84
2018-09-26T14:10:01.165Z,23.31
2018-09-26T14:12:30.919Z,23.53
2018-09-26T14:15:00.518Z,23.79
2018-09-26T14:17:30.038Z,24.17
2018-09-26T14:19:59.625Z,23.90
2018-09-26T14:22:29.633Z,23.69
2018-09-26T14:24:59.416Z,23.67
2018-09-26T14:27:29.020Z,23.42
2018-09-26T14:29:58.731Z,23.57
2018-09-26T14:32:28.420Z,22.96
2018-09-26T14:34:57.992Z,23.55
2018-09-26T14:37:27.652Z,23.18
2018-09-26T14:39:57.172Z,23.77
2018-09-26T14:42:26.877Z,23.95
2018-09-26T14:44:56.595Z,23.78
2018-09-26T14:47:26.208Z,25.04
2018-09-26T14:49:55.907Z,24.62
2018-09-26T14:52:25.462Z,24.49
2018-09-26T14:54:55.071Z,24.01
2018-09-26T14:57:25.129Z,24.25
2018-09-26T14:59:54.643Z,24.76
2018-09-26T15:02:24.334Z,24.38
2018-09-26T15:04:53.940Z,24.60
2018-09-26T15:07:24.474Z,24.98
2018-09-26T15:09:54.024Z,25.06
2018-09-26T15:12:23.739Z,25.67
2018-09-26T15:14:53.324Z,25.83
2018-09-26T15:17:23.002Z,26.04
2018-09-26T15:19:52.602Z,26.51
2018-09-26T15:22:23.120Z,26.33
2018-09-26T15:24:52.603Z,26.24
2018-09-26T15:27:22.168Z,26.47
2018-09-26T15:29:51.803Z,26.57
2018-09-26T15:32:21.604Z,26.91
2018-09-26T15:34:51.167Z,26.76
2018-09-26T15:37:20.931Z,26.86
2018-09-26T15:39:50.531Z,26.53
2018-09-26T15:42:20.219Z,27.15
2018-09-26T15:44:49.761Z,27.09
2018-09-26T15:47:20.283Z,27.27
2018-09-26T15:49:49.872Z,27.81
2018-09-26T15:52:19.897Z,27.75
2018-09-26T15:54:49.516Z,27.80
2018-09-26T15:57:19.100Z,27.66
2018-09-26T15:59:48.664Z,27.94
2018-09-26T16:02:18.334Z,28.00
2018-09-26T16:04:47.897Z,27.30
2018-09-26T16:07:17.437Z,27.79
2018-09-26T16:09:47.051Z,27.52
2018-09-26T16:12:16.655Z,27.43
2018-09-26T16:14:46.293Z,27.95
2018-09-26T16:17:15.859Z,28.33
2018-09-26T16:19:45.582Z,28.12
2018-09-26T16:22:15.134Z,28.39
2018-09-26T16:24:44.584Z,28.57
2018-09-26T16:27:14.192Z,28.54
2018-09-26T16:29:44.481Z,28.98
2018-09-26T16:32:14.041Z,29.07
2018-09-26T16:34:43.584Z,29.00
2018-09-26T16:37:13.427Z,29.77
2018-09-26T16:39:43.000Z,30.23
2018-09-26T16:42:12.590Z,30.12
2018-09-26T16:44:42.290Z,30.28
2018-09-26T16:47:12.002Z,30.42
2018-09-26T16:49:41.539Z,30.57
2018-09-26T16:52:11.175Z,31.30
2018-09-26T16:54:40.712Z,31.36
2018-09-26T16:57:11.280Z,31.40
2018-09-26T16:59:41.159Z,31.70
2018-09-26T17:02:10.718Z,31.88
2018-09-26T17:04:40.252Z,32.14
2018-09-26T17:07:09.877Z,32.35
2018-09-26T17:09:39.456Z,30.63
2018-09-26T17:12:09.019Z,30.95
2018-09-26T17:14:38.558Z,31.00
2018-09-26T17:17:08.144Z,30.58
2018-09-26T17:19:37.770Z,31.40
2018-09-26T17:22:07.352Z,30.84
2018-09-26T17:24:37.122Z,31.46
2018-09-26T17:27:06.689Z,31.83
2018-09-26T17:29:36.273Z,32.61
2018-09-26T17:32:06.950Z,32.08
2018-09-26T17:34:36.619Z,32.81
2018-09-26T17:37:06.236Z,33.10
2018-09-26T17:39:35.906Z,33.00
2018-09-26T17:42:05.579Z,33.12
2018-09-26T17:44:35.271Z,33.32
2018-09-26T17:47:04.859Z,33.27
2018-09-26T17:49:34.486Z,31.80
2018-09-26T17:52:04.058Z,31.88
2018-09-26T17:54:33.737Z,32.13
2018-09-26T17:57:03.194Z,31.85
2018-09-26T17:59:32.770Z,32.43
2018-09-26T18:02:02.359Z,32.15
2018-09-26T18:04:32.116Z,32.31
2018-09-26T18:07:01.796Z,32.98
2018-09-26T18:09:31.302Z,32.99
2018-09-26T18:12:01.070Z,33.21
2018-09-26T18:14:30.610Z,35.03
2018-09-26T18:17:00.164Z,33.37
2018-09-26T18:19:29.761Z,34.28
2018-09-26T18:21:59.264Z,35.17
2018-09-26T18:24:28.817Z,35.00
2018-09-26T18:26:58.373Z,34.27
2018-09-26T18:29:27.981Z,33.93
2018-09-26T18:31:57.500Z,34.46
2018-09-26T18:34:27.089Z,34.31
2018-09-26T18:36:56.689Z,35.08
2018-09-26T18:39:26.551Z,34.48
2018-09-26T18:41:55.987Z,34.30
2018-09-26T18:44:25.522Z,34.70
2018-09-26T18:46:55.015Z,34.87
2018-09-26T18:49:25.252Z,35.18
2018-09-26T18:51:55.570Z,34.93
2018-09-26T18:54:25.432Z,35.44
2018-09-26T18:56:54.918Z,34.81
2018-09-26T18:59:24.553Z,35.80
2018-09-26T19:01:54.070Z,35.81
2018-09-26T19:04:24.498Z,36.75
2018-09-26T19:06:54.099Z,37.00
2018-09-26T19:09:23.718Z,37.14
2018-09-26T19:11:53.410Z,37.05
2018-09-26T19:14:23.066Z,37.24
2018-09-26T19:16:52.674Z,37.60
2018-09-26T19:19:22.191Z,36.94
2018-09-26T19:21:51.864Z,36.96
2018-09-26T19:24:21.582Z,36.71
2018-09-26T19:26:51.195Z,37.19
2018-09-26T19:29:20.863Z,36.77
2018-09-26T19:31:50.480Z,36.82
2018-09-26T19:34:20.077Z,36.81
2018-09-26T19:36:49.704Z,37.15
2018-09-26T19:39:19.319Z,37.39
2018-09-26T19:41:49.028Z,38.73
2018-09-26T19:44:18.766Z,38.18
2018-09-26T19:46:48.281Z,37.81
2018-09-26T19:49:17.903Z,37.40
2018-09-26T19:51:47.686Z,36.80
2018-09-26T19:54:17.339Z,36.80
2018-09-26T19:56:46.854Z,37.49
2018-09-26T19:59:16.474Z,37.61
2018-09-26T20:01:46.065Z,37.69
2018-09-26T20:04:15.696Z,38.08
2018-09-26T20:06:45.318Z,37.42
2018-09-26T20:09:15.031Z,37.02
2018-09-26T20:11:44.598Z,37.38
2018-09-26T20:14:14.237Z,38.83
2018-09-26T20:16:43.859Z,38.09
2018-09-26T20:19:13.578Z,40.33
2018-09-26T20:21:43.130Z,39.66
2018-09-26T20:24:13.610Z,39.00
2018-09-26T20:26:43.324Z,40.30
2018-09-26T20:29:12.906Z,37.71
2018-09-26T20:31:42.623Z,38.77
2018-09-26T20:34:12.190Z,38.44
2018-09-26T20:36:41.814Z,39.75
2018-09-26T20:39:12.390Z,38.46
2018-09-26T20:41:42.054Z,38.43
2018-09-26T20:44:11.747Z,38.06
2018-09-26T20:46:41.477Z,38.42
2018-09-26T20:49:11.034Z,38.55
2018-09-26T20:51:40.677Z,38.71
2018-09-26T20:54:10.319Z,38.47
2018-09-26T20:56:40.234Z,38.61
2018-09-26T20:59:09.940Z,38.29
2018-09-26T21:01:39.459Z,38.33
2018-09-26T21:04:09.179Z,38.31
2018-09-26T21:06:38.866Z,38.72
2018-09-26T21:09:10.223Z,39.32
2018-09-26T21:11:40.048Z,39.54
2018-09-26T21:14:09.852Z,39.58
2018-09-26T21:16:39.623Z,39.66
2018-09-26T21:19:09.301Z,39.82
2018-09-26T21:21:38.911Z,39.63
2018-09-26T21:24:08.603Z,40.28
2018-09-26T21:26:38.198Z,40.41
2018-09-26T21:29:07.683Z,40.11
2018-09-26T21:31:38.084Z,43.02
2018-09-26T21:34:07.777Z,41.82
2018-09-26T21:36:37.284Z,40.12
2018-09-26T21:39:08.707Z,40.35
2018-09-26T21:41:38.337Z,39.75
2018-09-26T21:44:07.881Z,39.71
2018-09-26T21:46:37.619Z,39.18
2018-09-26T21:49:07.242Z,39.51
2018-09-26T21:51:36.908Z,39.51
2018-09-26T21:54:06.652Z,40.38
2018-09-26T21:56:36.281Z,40.47
2018-09-26T21:59:06.024Z,41.16
2018-09-26T22:01:35.637Z,40.99
2018-09-26T22:04:05.379Z,40.94
2018-09-26T22:06:35.002Z,40.95
2018-09-26T22:09:04.952Z,41.56
2018-09-26T22:11:34.546Z,41.66
2018-09-26T22:14:04.200Z,41.77
2018-09-26T22:16:33.788Z,41.75
2018-09-26T22:19:03.311Z,42.22
2018-09-26T22:21:32.944Z,42.11
2018-09-26T22:24:02.635Z,42.62
2018-09-26T22:26:32.436Z,42.86
2018-09-26T22:29:01.891Z,42.70
2018-09-26T22:31:31.509Z,43.08
2018-09-26T22:34:01.086Z,42.89
2018-09-26T22:36:30.704Z,42.86
2018-09-26T22:39:00.289Z,43.08
2018-09-26T22:41:29.955Z,42.57
2018-09-26T22:43:59.590Z,42.96
2018-09-26T22:46:30.058Z,44.90
2018-09-26T22:48:59.807Z,44.94
2018-09-26T22:51:29.563Z,43.40
2018-09-26T22:53:59.198Z,42.38
2018-09-26T22:56:29.812Z,42.68
2018-09-26T22:58:59.310Z,42.99
2018-09-26T23:01:28.881Z,43.12
2018-09-26T23:03:58.526Z,43.03
2018-09-26T23:06:28.109Z,43.79
2018-09-26T23:08:57.910Z,44.34
2018-09-26T23:11:27.616Z,44.25
2018-09-26T23:13:57.188Z,44.34
2018-09-26T23:16:26.659Z,44.24
2018-09-26T23:18:56.280Z,44.31
2018-09-26T23:21:26.013Z,45.04
2018-09-26T23:23:55.681Z,44.82
2018-09-26T23:26:25.397Z,45.42
2018-09-26T23:28:55.103Z,44.87
2018-09-26T23:31:24.747Z,44.41
2018-09-26T23:33:54.404Z,45.04
2018-09-26T23:36:24.258Z,44.61
2018-09-26T23:38:53.832Z,44.36
2018-09-26T23:41:23.449Z,44.11
2018-09-26T23:43:53.126Z,44.33
2018-09-26T23:46:22.692Z,44.69
2018-09-26T23:48:52.238Z,45.08
2018-09-26T23:51:21.756Z,45.35
2018-09-26T23:53:51.541Z,45.16
2018-09-26T23:56:21.040Z,45.43
2018-09-26T23:58:50.664Z,45.31
